createdAt,value
2016-12-21T00:00:11.773Z,83.64
2016-12-21T00:01:21.554Z,83.83
2016-12-21T00:02:31.045Z,83.54
2016-12-21T00:03:40.952Z,83.54
2016-12-21T00:04:50.774Z,83.54
2016-12-21T00:06:00.592Z,83.83
2016-12-21T00:07:10.369Z,83.4
2016-12-21T00:08:20.091Z,83.11
2016-12-21T00:09:29.582Z,83.4
2016-12-21T00:10:39.359Z,83.26
2016-12-21T00:11:49.362Z,83.07
2016-12-21T00:12:59.312Z,83.64
2016-12-21T00:14:09.089Z,83.68
2016-12-21T00:15:18.863Z,83.11
2016-12-21T00:16:28.646Z,83.3
2016-12-21T00:17:38.122Z,83.36
2016-12-21T00:18:47.925Z,83.64
2016-12-21T00:19:57.727Z,83.59
2016-12-21T00:21:07.601Z,83.3
2016-12-21T00:22:17.415Z,83.36
2016-12-21T00:23:26.697Z,83.45
2016-12-21T00:24:36.561Z,83.26
2016-12-21T00:25:46.396Z,83.17
2016-12-21T00:26:56.189Z,83.54
2016-12-21T00:28:05.978Z,84.11
2016-12-21T00:29:15.456Z,84.01
2016-12-21T00:30:25.427Z,83.45
2016-12-21T00:31:35.219Z,84.11
2016-12-21T00:32:45.024Z,83.64
2016-12-21T00:33:54.552Z,84.01
2016-12-21T00:35:04.508Z,83.92
2016-12-21T00:36:14.296Z,83.54
2016-12-21T00:37:24.068Z,83.64
2016-12-21T00:38:33.539Z,83.54
2016-12-21T00:39:43.055Z,83.45
2016-12-21T00:40:52.848Z,83.73
2016-12-21T00:42:02.657Z,83.45
2016-12-21T00:43:12.472Z,83.59
2016-12-21T00:44:22.250Z,84.25
2016-12-21T00:45:31.781Z,83.59
2016-12-21T00:46:41.288Z,83.68
2016-12-21T00:47:51.097Z,83.68
2016-12-21T00:49:00.282Z,83.59
2016-12-21T00:50:09.472Z,83.3
2016-12-21T00:51:18.951Z,83.02
2016-12-21T00:52:28.429Z,83.11
2016-12-21T00:53:37.885Z,84.11
2016-12-21T00:54:47.757Z,83.3
2016-12-21T00:55:57.676Z,84.11
2016-12-21T00:57:07.283Z,83.54
2016-12-21T00:58:17.054Z,83.92
2016-12-21T00:59:26.889Z,83.64
2016-12-21T01:00:36.386Z,83.64
2016-12-21T01:01:46.168Z,83.73
2016-12-21T01:02:55.639Z,83.36
2016-12-21T01:04:05.443Z,83.73
2016-12-21T01:05:14.936Z,84.2
2016-12-21T01:06:24.374Z,84.11
2016-12-21T01:07:34.371Z,84.01
2016-12-21T01:08:43.653Z,84.11
2016-12-21T01:09:53.514Z,84.01
2016-12-21T01:11:03.286Z,84.11
2016-12-21T01:12:12.758Z,84.2
2016-12-21T01:13:22.588Z,84.2
2016-12-21T01:14:32.075Z,84.2
2016-12-21T01:15:41.231Z,84.68
2016-12-21T01:16:51.080Z,84.2
2016-12-21T01:18:00.556Z,84.68
2016-12-21T01:19:10.096Z,84.34
2016-12-21T01:20:19.600Z,84.06
2016-12-21T01:21:29.087Z,83.97
2016-12-21T01:22:38.605Z,84.16
2016-12-21T01:23:48.077Z,84.44
2016-12-21T01:24:57.290Z,84.16
2016-12-21T01:26:07.117Z,83.87
2016-12-21T01:27:16.899Z,84.25
2016-12-21T01:28:26.682Z,84.06
2016-12-21T01:29:36.225Z,84.06
2016-12-21T01:30:46.020Z,83.78
2016-12-21T01:31:55.801Z,83.49
2016-12-21T01:33:05.608Z,83.49
2016-12-21T01:34:15.390Z,83.4
2016-12-21T01:35:25.163Z,83.59
2016-12-21T01:36:34.632Z,84.06
2016-12-21T01:37:44.410Z,83.68
2016-12-21T01:38:54.063Z,83.49
2016-12-21T01:40:03.835Z,84.16
2016-12-21T01:41:13.667Z,84.34
2016-12-21T01:42:23.500Z,83.3
2016-12-21T01:43:33.292Z,83.78
2016-12-21T01:44:43.105Z,83.68
2016-12-21T01:45:52.919Z,83.78
2016-12-21T01:47:02.395Z,83.97
2016-12-21T01:48:11.918Z,83.68
2016-12-21T01:49:21.712Z,83.59
2016-12-21T01:50:31.492Z,83.68
2016-12-21T01:51:41.052Z,84.34
2016-12-21T01:52:50.861Z,83.87
2016-12-21T01:54:00.680Z,83.87
2016-12-21T01:55:10.175Z,83.68
2016-12-21T01:56:19.637Z,84.06
2016-12-21T01:57:28.894Z,83.83
2016-12-21T01:58:38.775Z,84.58
2016-12-21T01:59:48.614Z,84.81
2016-12-21T02:00:58.410Z,84.81
2016-12-21T02:02:07.885Z,84.34
2016-12-21T02:03:17.664Z,84.06
2016-12-21T02:04:27.167Z,84.34
2016-12-21T02:05:36.649Z,84.16
2016-12-21T02:06:45.551Z,84.63
2016-12-21T02:07:55.083Z,84.44
2016-12-21T02:09:04.907Z,84.72
2016-12-21T02:10:14.759Z,84.25
2016-12-21T02:11:23.952Z,84.34
2016-12-21T02:12:33.480Z,84.34
2016-12-21T02:13:43.257Z,84.44
2016-12-21T02:14:52.748Z,84.06
2016-12-21T02:16:02.260Z,84.34
2016-12-21T02:17:11.437Z,84.72
2016-12-21T02:18:20.916Z,85
2016-12-21T02:19:30.684Z,84.44
2016-12-21T02:20:40.475Z,84.34
2016-12-21T02:21:49.957Z,84.34
2016-12-21T02:22:59.455Z,84.06
2016-12-21T02:24:09.281Z,84.34
2016-12-21T02:25:19.052Z,84.44
2016-12-21T02:26:28.964Z,84.16
2016-12-21T02:27:38.958Z,84.25
2016-12-21T02:28:48.765Z,84.53
2016-12-21T02:29:58.630Z,84.63
2016-12-21T02:31:08.101Z,85.28
2016-12-21T02:32:17.987Z,84.91
2016-12-21T02:33:27.478Z,84.25
2016-12-21T02:34:37.269Z,83.97
2016-12-21T02:35:47.099Z,84.34
2016-12-21T02:36:56.718Z,85
2016-12-21T02:38:06.553Z,84.91
2016-12-21T02:39:16.102Z,84.72
2016-12-21T02:40:25.980Z,85
2016-12-21T02:41:35.473Z,85
2016-12-21T02:42:44.640Z,84.34
2016-12-21T02:43:54.436Z,84.34
2016-12-21T02:45:04.238Z,84.16
2016-12-21T02:46:14.074Z,84.34
2016-12-21T02:47:23.910Z,84.81
2016-12-21T02:48:33.706Z,85.1
2016-12-21T02:49:43.485Z,84.06
2016-12-21T02:50:53.262Z,84.16
2016-12-21T02:52:02.744Z,84.53
2016-12-21T02:53:12.542Z,84.34
2016-12-21T02:54:22.363Z,84.63
2016-12-21T02:55:32.182Z,84.72
2016-12-21T02:56:41.366Z,84.53
2016-12-21T02:57:51.248Z,84.34
2016-12-21T02:59:01.033Z,84.81
2016-12-21T03:00:10.211Z,85
2016-12-21T03:01:20.037Z,84.72
2016-12-21T03:02:29.929Z,84.25
2016-12-21T03:03:39.101Z,84.91
2016-12-21T03:04:48.935Z,85
2016-12-21T03:05:58.463Z,84.72
2016-12-21T03:07:08.267Z,84.63
2016-12-21T03:08:17.729Z,84.81
2016-12-21T03:09:27.199Z,84.63
2016-12-21T03:10:36.678Z,84.44
2016-12-21T03:11:46.146Z,84.72
2016-12-21T03:12:55.631Z,84.53
2016-12-21T03:14:05.172Z,84.63
2016-12-21T03:15:14.666Z,84.44
2016-12-21T03:16:24.273Z,84.63
2016-12-21T03:17:33.762Z,84.53
2016-12-21T03:18:43.349Z,84.44
2016-12-21T03:19:53.127Z,84.72
2016-12-21T03:21:02.320Z,84.44
2016-12-21T03:22:12.230Z,84.63
2016-12-21T03:23:21.436Z,84.16
2016-12-21T03:24:30.690Z,84.16
2016-12-21T03:25:40.156Z,84.44
2016-12-21T03:26:49.971Z,84.25
2016-12-21T03:27:59.794Z,84.34
2016-12-21T03:29:09.296Z,84.25
2016-12-21T03:30:19.104Z,84.25
2016-12-21T03:31:28.618Z,84.63
2016-12-21T03:32:38.137Z,84.77
2016-12-21T03:33:48.098Z,84.29
2016-12-21T03:34:57.878Z,83.78
2016-12-21T03:36:07.396Z,84.16
2016-12-21T03:37:17.297Z,84.16
2016-12-21T03:38:27.128Z,84.25
2016-12-21T03:39:36.914Z,84.63
2016-12-21T03:40:46.740Z,84.34
2016-12-21T03:41:56.231Z,84.44
2016-12-21T03:43:06.016Z,84.53
2016-12-21T03:44:15.789Z,84.25
2016-12-21T03:45:25.315Z,84.44
2016-12-21T03:46:34.817Z,84.72
2016-12-21T03:47:44.448Z,84.16
2016-12-21T03:48:54.220Z,84.39
2016-12-21T03:50:04.025Z,84.25
2016-12-21T03:51:13.509Z,84.39
2016-12-21T03:52:22.977Z,84.25
2016-12-21T03:53:32.212Z,84.16
2016-12-21T03:54:42.033Z,84.25
2016-12-21T03:55:51.584Z,84.34
2016-12-21T03:57:01.357Z,84.25
2016-12-21T03:58:11.155Z,84.25
2016-12-21T03:59:20.653Z,84.81
2016-12-21T04:00:29.825Z,84.63
2016-12-21T04:01:39.649Z,84.63
2016-12-21T04:02:49.269Z,84.63
2016-12-21T04:03:59.059Z,84.25
2016-12-21T04:05:08.838Z,84.29
2016-12-21T04:06:18.318Z,84.34
2016-12-21T04:07:27.804Z,84.44
2016-12-21T04:08:37.299Z,83.82
2016-12-21T04:09:46.775Z,84.29
2016-12-21T04:10:56.628Z,83.97
2016-12-21T04:12:05.834Z,83.97
2016-12-21T04:13:15.310Z,84.25
2016-12-21T04:14:25.121Z,84.44
2016-12-21T04:15:34.900Z,84.91
2016-12-21T04:16:44.685Z,84.29
2016-12-21T04:17:54.484Z,84.25
2016-12-21T04:19:04.272Z,84.34
2016-12-21T04:20:14.050Z,84.2
2016-12-21T04:21:23.841Z,84.1
2016-12-21T04:22:33.606Z,84.2
2016-12-21T04:23:43.451Z,84.29
2016-12-21T04:24:52.939Z,84.29
2016-12-21T04:26:02.750Z,84.1
2016-12-21T04:27:11.942Z,83.63
2016-12-21T04:28:21.744Z,83.72
2016-12-21T04:29:31.271Z,83.44
2016-12-21T04:30:41.126Z,83.72
2016-12-21T04:31:50.899Z,83.72
2016-12-21T04:33:00.715Z,83.87
2016-12-21T04:34:10.190Z,83.78
2016-12-21T04:35:19.971Z,84.06
2016-12-21T04:36:29.460Z,83.97
2016-12-21T04:37:39.305Z,84.1
2016-12-21T04:38:48.806Z,84.06
2016-12-21T04:39:58.343Z,84.06
2016-12-21T04:41:08.208Z,84.06
2016-12-21T04:42:17.669Z,84.06
2016-12-21T04:43:27.137Z,84.16
2016-12-21T04:44:36.936Z,83.87
2016-12-21T04:45:46.766Z,84.25
2016-12-21T04:46:56.544Z,84.06
2016-12-21T04:48:06.053Z,84.25
2016-12-21T04:49:15.844Z,84.72
2016-12-21T04:50:25.684Z,84.44
2016-12-21T04:51:35.506Z,84.53
2016-12-21T04:52:45.294Z,84.72
2016-12-21T04:53:54.770Z,84.81
2016-12-21T04:55:04.265Z,84.63
2016-12-21T04:56:14.071Z,84.34
2016-12-21T04:57:23.553Z,84.29
2016-12-21T04:58:33.031Z,83.87
2016-12-21T04:59:42.880Z,84.16
2016-12-21T05:00:52.659Z,84.48
2016-12-21T05:02:02.511Z,84.25
2016-12-21T05:03:12.357Z,84.16
2016-12-21T05:04:22.154Z,84.25
2016-12-21T05:05:31.670Z,84.25
2016-12-21T05:06:40.866Z,84.2
2016-12-21T05:07:50.663Z,84.2
2016-12-21T05:09:00.132Z,84.29
2016-12-21T05:10:08.980Z,84.1
2016-12-21T05:11:18.468Z,84.29
2016-12-21T05:12:28.271Z,83.91
2016-12-21T05:13:37.753Z,83.91
2016-12-21T05:14:47.546Z,83.91
2016-12-21T05:15:57.345Z,83.82
2016-12-21T05:17:06.210Z,83.78
2016-12-21T05:18:16.074Z,84.2
2016-12-21T05:19:25.859Z,83.87
2016-12-21T05:20:35.361Z,83.97
2016-12-21T05:21:45.168Z,83.97
2016-12-21T05:22:54.706Z,84.29
2016-12-21T05:24:04.496Z,84.16
2016-12-21T05:25:14.341Z,84.34
2016-12-21T05:26:23.869Z,84.2
2016-12-21T05:27:33.745Z,83.97
2016-12-21T05:28:43.527Z,84.29
2016-12-21T05:29:53.003Z,83.78
2016-12-21T05:31:02.216Z,83.49
2016-12-21T05:32:11.685Z,83.87
2016-12-21T05:33:21.204Z,83.91
2016-12-21T05:34:30.356Z,83.53
2016-12-21T05:35:39.837Z,83.59
2016-12-21T05:36:49.611Z,83.87
2016-12-21T05:37:59.390Z,83.87
2016-12-21T05:39:09.188Z,83.82
2016-12-21T05:40:18.958Z,83.53
2016-12-21T05:41:28.460Z,83.68
2016-12-21T05:42:38.368Z,83.72
2016-12-21T05:43:47.869Z,83.25
2016-12-21T05:44:57.347Z,83.25
2016-12-21T05:46:07.199Z,84.1
2016-12-21T05:47:17.035Z,84.29
2016-12-21T05:48:26.827Z,83.63
2016-12-21T05:49:36.011Z,83.63
2016-12-21T05:50:45.510Z,82.97
2016-12-21T05:51:55.009Z,83.34
2016-12-21T05:53:05.066Z,83.82
2016-12-21T05:54:14.549Z,83.06
2016-12-21T05:55:24.329Z,83.44
2016-12-21T05:56:33.806Z,83.34
2016-12-21T05:57:43.293Z,83.25
2016-12-21T05:58:52.809Z,83.53
2016-12-21T06:00:02.703Z,83.53
2016-12-21T06:01:12.028Z,83.11
2016-12-21T06:02:21.862Z,83.3
2016-12-21T06:03:31.361Z,83.25
2016-12-21T06:04:40.847Z,83.4
2016-12-21T06:05:50.693Z,83.68
2016-12-21T06:07:00.505Z,83.15
2016-12-21T06:07:55.231Z,83.72
2016-12-21T06:09:05.042Z,83.25
2016-12-21T06:10:14.533Z,83.25
2016-12-21T06:11:24.011Z,83.4
2016-12-21T06:12:33.193Z,83.3
2016-12-21T06:13:42.694Z,83.4
2016-12-21T06:14:52.498Z,83.25
2016-12-21T06:16:02.005Z,83.4
2016-12-21T06:17:11.879Z,83.59
2016-12-21T06:18:21.728Z,83.68
2016-12-21T06:19:31.201Z,83.68
2016-12-21T06:20:41.169Z,83.49
2016-12-21T06:21:50.960Z,83.02
2016-12-21T06:23:00.444Z,83.4
2016-12-21T06:24:10.226Z,83.3
2016-12-21T06:25:19.721Z,83.4
2016-12-21T06:26:29.535Z,83.3
2016-12-21T06:27:39.047Z,83.3
2016-12-21T06:28:48.847Z,83.21
2016-12-21T06:29:58.421Z,83.4
2016-12-21T06:31:08.275Z,83.59
2016-12-21T06:32:18.096Z,83.68
2016-12-21T06:33:27.265Z,82.92
2016-12-21T06:34:36.445Z,82.92
2016-12-21T06:35:46.266Z,82.83
2016-12-21T06:36:55.842Z,83.21
2016-12-21T06:38:05.650Z,82.83
2016-12-21T06:39:15.147Z,83.49
2016-12-21T06:40:24.319Z,83.3
2016-12-21T06:41:34.199Z,83.59
2016-12-21T06:42:43.380Z,83.21
2016-12-21T06:43:53.184Z,83.3
2016-12-21T06:45:02.343Z,83.4
2016-12-21T06:46:11.835Z,83.59
2016-12-21T06:47:21.106Z,83.64
2016-12-21T06:48:30.585Z,83.73
2016-12-21T06:49:40.365Z,83.87
2016-12-21T06:50:50.141Z,83.59
2016-12-21T06:51:59.681Z,83.21
2016-12-21T06:53:08.890Z,83.4
2016-12-21T06:54:18.680Z,84.06
2016-12-21T06:55:28.446Z,84.16
2016-12-21T06:56:37.605Z,83.68
2016-12-21T06:57:47.410Z,83.78
2016-12-21T06:58:56.874Z,84.06
2016-12-21T07:00:06.658Z,83.59
2016-12-21T07:01:16.484Z,83.68
2016-12-21T07:02:26.388Z,83.68
2016-12-21T07:03:35.553Z,83.87
2016-12-21T07:04:45.435Z,83.4
2016-12-21T07:05:55.310Z,84.06
2016-12-21T07:07:04.798Z,83.4
2016-12-21T07:08:14.648Z,83.4
2016-12-21T07:09:24.570Z,84.06
2016-12-21T07:10:34.356Z,83.68
2016-12-21T07:11:43.874Z,83.11
2016-12-21T07:12:53.665Z,83.21
2016-12-21T07:14:03.509Z,83.3
2016-12-21T07:15:13.337Z,82.92
2016-12-21T07:16:23.119Z,83.3
2016-12-21T07:17:32.323Z,83.36
2016-12-21T07:18:41.864Z,83.36
2016-12-21T07:19:51.664Z,83.64
2016-12-21T07:21:01.463Z,83.54
2016-12-21T07:22:10.935Z,83.64
2016-12-21T07:23:20.133Z,83.64
2016-12-21T07:24:29.923Z,82.88
2016-12-21T07:25:39.761Z,83.36
2016-12-21T07:26:49.547Z,83.36
2016-12-21T07:27:59.360Z,83.26
2016-12-21T07:29:09.147Z,83.26
2016-12-21T07:30:19.054Z,82.88
2016-12-21T07:31:28.853Z,83.17
2016-12-21T07:32:38.403Z,82.69
2016-12-21T07:33:48.177Z,82.69
2016-12-21T07:34:57.668Z,82.5
2016-12-21T07:36:07.550Z,82.83
2016-12-21T07:37:17.149Z,82.92
2016-12-21T07:38:26.651Z,82.12
2016-12-21T07:39:35.815Z,81.93
2016-12-21T07:40:45.677Z,81.74
2016-12-21T07:41:55.499Z,82.12
2016-12-21T07:43:04.971Z,82.41
2016-12-21T07:44:14.762Z,82.22
2016-12-21T07:45:24.558Z,81.84
2016-12-21T07:46:34.074Z,81.84
2016-12-21T07:47:43.848Z,82.22
2016-12-21T07:48:53.356Z,81.93
2016-12-21T07:50:02.815Z,82.22
2016-12-21T07:51:12.616Z,82.12
2016-12-21T07:52:22.527Z,82.12
2016-12-21T07:53:32.323Z,82.12
2016-12-21T07:54:41.790Z,82.12
2016-12-21T07:55:51.320Z,81.84
2016-12-21T07:57:01.139Z,81.65
2016-12-21T07:58:10.935Z,81.84
2016-12-21T07:59:20.721Z,81.98
2016-12-21T08:00:30.193Z,81.32
2016-12-21T08:01:39.996Z,81.32
2016-12-21T08:02:49.462Z,80.94
2016-12-21T08:03:59.286Z,80.75
2016-12-21T08:05:09.092Z,80.65
2016-12-21T08:06:18.882Z,80.56
2016-12-21T08:07:28.353Z,80.84
2016-12-21T08:08:38.158Z,80.46
2016-12-21T08:09:47.693Z,80.27
2016-12-21T08:10:57.531Z,80.18
2016-12-21T08:12:07.029Z,80.37
2016-12-21T08:13:16.836Z,80.18
2016-12-21T08:14:26.339Z,80.46
2016-12-21T08:15:35.830Z,80.18
2016-12-21T08:16:45.314Z,80.37
2016-12-21T08:17:54.498Z,79.9
2016-12-21T08:19:04.283Z,79.71
2016-12-21T08:20:14.264Z,79.9
2016-12-21T08:21:23.767Z,79.71
2016-12-21T08:22:33.554Z,79.43
2016-12-21T08:23:43.047Z,79.8
2016-12-21T08:24:52.537Z,78.95
2016-12-21T08:26:02.062Z,79.8
2016-12-21T08:27:11.891Z,79.52
2016-12-21T08:28:21.802Z,78.76
2016-12-21T08:29:31.643Z,79.05
2016-12-21T08:30:41.163Z,78.95
2016-12-21T08:31:50.643Z,79.05
2016-12-21T08:33:00.456Z,78.86
2016-12-21T08:34:09.949Z,79.14
2016-12-21T08:35:19.932Z,79.18
2016-12-21T08:36:29.851Z,79.05
2016-12-21T08:37:39.354Z,79.18
2016-12-21T08:38:48.521Z,78.61
2016-12-21T08:39:57.741Z,78.8
2016-12-21T08:41:07.521Z,78.33
2016-12-21T08:42:16.985Z,78.52
2016-12-21T08:43:26.468Z,78.42
2016-12-21T08:44:36.251Z,78.23
2016-12-21T08:45:45.708Z,77.76
2016-12-21T08:46:55.189Z,77.48
2016-12-21T08:48:05.068Z,77.67
2016-12-21T08:49:14.909Z,77.67
2016-12-21T08:50:24.716Z,77.29
2016-12-21T08:51:33.888Z,77.76
2016-12-21T08:52:43.119Z,77.67
2016-12-21T08:53:52.614Z,77.76
2016-12-21T08:55:02.104Z,77.8
2016-12-21T08:56:11.734Z,77.33
2016-12-21T08:57:21.236Z,77.33
2016-12-21T08:58:31.089Z,77.51
2016-12-21T08:59:40.569Z,77.23
2016-12-21T09:00:50.352Z,77.51
2016-12-21T09:02:00.182Z,77.8
2016-12-21T09:03:09.789Z,77.04
2016-12-21T09:04:18.967Z,76.67
2016-12-21T09:05:28.435Z,76.67
2016-12-21T09:06:37.927Z,76.86
2016-12-21T09:07:47.740Z,76.95
2016-12-21T09:08:57.356Z,76.95
2016-12-21T09:10:06.847Z,76.86
2016-12-21T09:11:16.365Z,76.95
2016-12-21T09:12:26.150Z,76.86
2016-12-21T09:13:35.947Z,76.38
2016-12-21T09:14:45.737Z,76.86
2016-12-21T09:15:55.310Z,76.76
2016-12-21T09:17:05.138Z,76.48
2016-12-21T09:18:14.955Z,76.48
2016-12-21T09:19:24.772Z,76.76
2016-12-21T09:20:34.592Z,76.95
2016-12-21T09:21:44.405Z,76.86
2016-12-21T09:22:53.896Z,77.04
2016-12-21T09:24:03.400Z,76.86
2016-12-21T09:25:13.244Z,76.57
2016-12-21T09:26:23.018Z,76.57
2016-12-21T09:27:32.702Z,76.86
2016-12-21T09:28:42.209Z,77.04
2016-12-21T09:29:51.711Z,77.04
2016-12-21T09:31:01.215Z,76.95
2016-12-21T09:32:10.816Z,76.86
2016-12-21T09:33:20.289Z,77.23
2016-12-21T09:34:29.769Z,77.04
2016-12-21T09:35:39.375Z,77.42
2016-12-21T09:36:48.864Z,76.76
2016-12-21T09:37:58.746Z,76.86
2016-12-21T09:39:08.567Z,76.86
2016-12-21T09:40:18.390Z,76.76
2016-12-21T09:41:28.190Z,76.67
2016-12-21T09:42:37.656Z,77.04
2016-12-21T09:43:47.155Z,76.8
2016-12-21T09:44:57.072Z,77.08
2016-12-21T09:46:06.893Z,76.89
2016-12-21T09:47:16.404Z,76.99
2016-12-21T09:48:26.216Z,76.99
2016-12-21T09:49:36.013Z,76.8
2016-12-21T09:50:45.829Z,76.51
2016-12-21T09:51:55.668Z,76.14
2016-12-21T09:53:05.497Z,76.14
2016-12-21T09:54:15.311Z,76.14
2016-12-21T09:55:24.801Z,76.14
2016-12-21T09:56:34.664Z,75.95
2016-12-21T09:57:44.208Z,76.23
2016-12-21T09:58:54.037Z,75.66
2016-12-21T10:00:03.644Z,75.32
2016-12-21T10:01:13.461Z,75.23
2016-12-21T10:02:22.614Z,74.98
2016-12-21T10:03:32.448Z,74.22
2016-12-21T10:04:42.255Z,73.97
2016-12-21T10:05:51.800Z,73.41
2016-12-21T10:07:01.314Z,72.78
2016-12-21T10:08:10.658Z,71.92
2016-12-21T10:09:20.457Z,71.11
2016-12-21T10:10:29.649Z,70.73
2016-12-21T10:11:39.477Z,69.87
2016-12-21T10:12:49.309Z,69.59
2016-12-21T10:13:58.783Z,69.24
2016-12-21T10:15:08.374Z,68.39
2016-12-21T10:16:17.845Z,67.57
2016-12-21T10:17:27.722Z,66.33
2016-12-21T10:18:37.537Z,65.6
2016-12-21T10:19:47.429Z,65.13
2016-12-21T10:20:57.238Z,64.75
2016-12-21T10:22:07.062Z,64.11
2016-12-21T10:23:16.267Z,63.92
2016-12-21T10:24:26.155Z,62.49
2016-12-21T10:25:35.662Z,61.58
2016-12-21T10:26:45.540Z,61.48
2016-12-21T10:27:55.012Z,60.44
2016-12-21T10:29:04.664Z,59.39
2016-12-21T10:30:14.140Z,58.72
2016-12-21T10:31:23.940Z,57.6
2016-12-21T10:32:33.505Z,57.7
2016-12-21T10:33:43.310Z,57.89
2016-12-21T10:34:52.508Z,56.85
2016-12-21T10:36:02.374Z,56.85
2016-12-21T10:37:11.894Z,56.46
2016-12-21T10:38:21.372Z,55.9
2016-12-21T10:39:31.299Z,56.46
2016-12-21T10:40:41.121Z,56.94
2016-12-21T10:41:50.600Z,56.18
2016-12-21T10:43:00.391Z,56.37
2016-12-21T10:44:09.992Z,55.8
2016-12-21T10:45:19.826Z,55.04
2016-12-21T10:46:29.628Z,54.85
2016-12-21T10:47:39.116Z,54.88
2016-12-21T10:48:48.368Z,54.11
2016-12-21T10:49:57.856Z,53.83
2016-12-21T10:51:07.669Z,54.39
2016-12-21T10:52:17.511Z,54.11
2016-12-21T10:53:27.380Z,53.64
2016-12-21T10:54:37.209Z,52.4
2016-12-21T10:55:47.061Z,52.11
2016-12-21T10:56:56.599Z,52.28
2016-12-21T10:58:06.410Z,52.94
2016-12-21T10:59:16.229Z,52.94
2016-12-21T11:00:25.396Z,53.04
2016-12-21T11:01:34.573Z,52.87
2016-12-21T11:02:44.082Z,53.06
2016-12-21T11:03:53.565Z,52.97
2016-12-21T11:05:03.456Z,52.97
2016-12-21T11:06:13.245Z,52.68
2016-12-21T11:07:23.072Z,52.42
2016-12-21T11:08:32.875Z,51.85
2016-12-21T11:09:42.710Z,51.09
2016-12-21T11:10:52.236Z,50.8
2016-12-21T11:12:02.132Z,50.61
2016-12-21T11:13:11.932Z,49.85
2016-12-21T11:14:21.417Z,49.76
2016-12-21T11:15:31.279Z,49.85
2016-12-21T11:16:40.783Z,49.28
2016-12-21T11:17:50.300Z,49.92
2016-12-21T11:19:00.121Z,50.59
2016-12-21T11:20:09.670Z,50.61
2016-12-21T11:21:19.521Z,50.61
2016-12-21T11:22:29.333Z,50.42
2016-12-21T11:23:39.134Z,50.01
2016-12-21T11:24:48.656Z,50.78
2016-12-21T11:25:58.170Z,51.45
2016-12-21T11:27:07.720Z,51.14
2016-12-21T11:28:17.220Z,50.94
2016-12-21T11:29:27.035Z,51.78
2016-12-21T11:30:36.603Z,51.75
2016-12-21T11:31:46.402Z,52.22
2016-12-21T11:32:56.196Z,52.89
2016-12-21T11:34:06.050Z,52.89
2016-12-21T11:35:15.530Z,53.72
2016-12-21T11:36:25.043Z,53.55
2016-12-21T11:37:34.874Z,53.91
2016-12-21T11:38:44.092Z,53.94
2016-12-21T11:39:53.634Z,54.29
2016-12-21T11:41:03.622Z,54.19
2016-12-21T11:42:13.514Z,54.48
2016-12-21T11:43:23.395Z,54.38
2016-12-21T11:44:33.238Z,54.48
2016-12-21T11:45:42.847Z,54.96
2016-12-21T11:46:52.644Z,55.21
2016-12-21T11:48:02.532Z,55.5
2016-12-21T11:49:12.328Z,55.88
2016-12-21T11:50:22.190Z,56.07
2016-12-21T11:51:31.982Z,56.45
2016-12-21T11:52:41.488Z,56.83
2016-12-21T11:53:51.324Z,56.99
2016-12-21T11:55:00.845Z,57.28
2016-12-21T11:56:10.351Z,57.65
2016-12-21T11:57:19.841Z,58.03
2016-12-21T11:58:29.665Z,58.03
2016-12-21T11:59:39.468Z,58.51
2016-12-21T12:00:48.707Z,58.7
2016-12-21T12:01:58.497Z,59.05
2016-12-21T12:03:07.979Z,58.95
2016-12-21T12:04:17.532Z,59.43
2016-12-21T12:05:27.332Z,59.52
2016-12-21T12:06:37.178Z,59.71
2016-12-21T12:07:46.987Z,59.62
2016-12-21T12:08:56.567Z,60
2016-12-21T12:10:05.780Z,60
2016-12-21T12:11:15.597Z,60.28
2016-12-21T12:12:25.431Z,60.82
2016-12-21T12:13:35.223Z,60.92
2016-12-21T12:14:45.020Z,61.11
2016-12-21T12:15:54.545Z,61.01
2016-12-21T12:17:04.334Z,61.96
2016-12-21T12:18:14.208Z,61.87
2016-12-21T12:19:24.040Z,61.77
2016-12-21T12:20:33.825Z,61.87
2016-12-21T12:21:43.344Z,61.87
2016-12-21T12:22:53.221Z,62.43
2016-12-21T12:24:03.147Z,62.05
2016-12-21T12:25:12.642Z,62.62
2016-12-21T12:26:54.260Z,63.01
2016-12-21T12:28:04.101Z,63.48
2016-12-21T12:29:13.983Z,63.2
2016-12-21T12:30:23.785Z,63.29
2016-12-21T12:31:33.616Z,63.57
2016-12-21T12:32:43.148Z,63.86
2016-12-21T12:33:53.151Z,63.86
2016-12-21T12:35:02.368Z,63.57
2016-12-21T12:36:11.877Z,64.24
2016-12-21T12:37:21.083Z,63.95
2016-12-21T12:38:30.566Z,64.52
2016-12-21T12:39:40.050Z,64.24
2016-12-21T12:40:49.849Z,64.43
2016-12-21T12:41:59.385Z,64.52
2016-12-21T12:43:09.181Z,65
2016-12-21T12:44:18.669Z,65
2016-12-21T12:45:27.893Z,65
2016-12-21T12:46:37.681Z,64.81
2016-12-21T12:47:47.529Z,64.9
2016-12-21T12:48:57.983Z,65.37
2016-12-21T12:50:07.813Z,65.19
2016-12-21T12:51:17.447Z,65.85
2016-12-21T12:52:27.256Z,65.28
2016-12-21T12:53:36.864Z,65.66
2016-12-21T12:54:46.657Z,65.91
2016-12-21T12:55:55.892Z,66.2
2016-12-21T12:57:05.717Z,66.39
2016-12-21T12:58:15.220Z,66.58
2016-12-21T12:59:24.713Z,66.77
2016-12-21T13:00:33.900Z,66.96
2016-12-21T13:01:43.834Z,67.52
2016-12-21T13:02:53.006Z,67.43
2016-12-21T13:04:02.832Z,68
2016-12-21T13:05:12.735Z,67.43
2016-12-21T13:06:22.260Z,67.81
2016-12-21T13:07:31.846Z,68.29
2016-12-21T13:08:41.652Z,67.9
2016-12-21T13:09:50.851Z,68
2016-12-21T13:11:00.664Z,68.19
2016-12-21T13:12:10.154Z,68.66
2016-12-21T13:13:19.627Z,68.66
2016-12-21T13:14:29.137Z,68.29
2016-12-21T13:15:38.919Z,68.66
2016-12-21T13:16:48.098Z,68.66
2016-12-21T13:17:57.310Z,68.85
2016-12-21T13:19:06.805Z,69.13
2016-12-21T13:20:16.382Z,68.95
2016-12-21T13:21:25.880Z,69.13
2016-12-21T13:22:35.674Z,69.33
2016-12-21T13:23:45.155Z,69.04
2016-12-21T13:24:54.953Z,68.95
2016-12-21T13:26:04.820Z,69.04
2016-12-21T13:27:14.673Z,69.33
2016-12-21T13:28:24.489Z,68.95
2016-12-21T13:29:34.274Z,68.95
2016-12-21T13:30:44.084Z,69.71
2016-12-21T13:31:53.870Z,69.52
2016-12-21T13:33:03.037Z,69.52
2016-12-21T13:34:12.866Z,69.61
2016-12-21T13:35:22.042Z,69.52
2016-12-21T13:36:31.854Z,69.8
2016-12-21T13:37:41.650Z,69.52
2016-12-21T13:38:51.163Z,70.18
2016-12-21T13:40:00.975Z,69.8
2016-12-21T13:41:10.489Z,70.37
2016-12-21T13:42:19.712Z,70.65
2016-12-21T13:43:29.503Z,70.47
2016-12-21T13:44:39.393Z,70.28
2016-12-21T13:45:49.192Z,70.72
2016-12-21T13:46:58.692Z,70.53
2016-12-21T13:48:08.489Z,71.22
2016-12-21T13:49:17.695Z,70.9
2016-12-21T13:50:27.172Z,70.9
2016-12-21T13:51:37.053Z,71.66
2016-12-21T13:52:46.847Z,71.7
2016-12-21T13:53:56.056Z,71.6
2016-12-21T13:55:05.885Z,71.85
2016-12-21T13:56:15.080Z,71.76
2016-12-21T13:57:24.898Z,71.95
2016-12-21T13:58:34.693Z,72.33
2016-12-21T13:59:44.530Z,72.33
2016-12-21T14:00:54.417Z,72.42
2016-12-21T14:02:03.599Z,72.23
2016-12-21T14:03:13.407Z,72.61
2016-12-21T14:04:22.885Z,72.99
2016-12-21T14:05:32.687Z,72.8
2016-12-21T14:06:42.565Z,72.89
2016-12-21T14:07:52.045Z,73.18
2016-12-21T14:09:01.596Z,73.18
2016-12-21T14:10:11.384Z,73.37
2016-12-21T14:11:20.586Z,73.08
2016-12-21T14:12:30.371Z,73.65
2016-12-21T14:13:39.841Z,73.46
2016-12-21T14:14:49.655Z,73.84
2016-12-21T14:15:59.450Z,73.84
2016-12-21T14:17:09.279Z,74.03
2016-12-21T14:18:19.093Z,73.94
2016-12-21T14:19:28.593Z,73.84
2016-12-21T14:20:38.115Z,73.65
2016-12-21T14:21:47.432Z,73.56
2016-12-21T14:22:57.227Z,73.65
2016-12-21T14:24:06.706Z,73.84
2016-12-21T14:25:16.185Z,73.94
2016-12-21T14:26:26.013Z,74.41
2016-12-21T14:27:35.508Z,73.84
2016-12-21T14:28:45.322Z,74.03
2016-12-21T14:29:54.797Z,73.94
2016-12-21T14:31:04.301Z,74.03
2016-12-21T14:32:14.163Z,74.22
2016-12-21T14:33:23.961Z,74.51
2016-12-21T14:34:33.748Z,74.32
2016-12-21T14:35:42.969Z,74.32
2016-12-21T14:36:52.766Z,74.03
2016-12-21T14:38:02.281Z,74.13
2016-12-21T14:39:11.902Z,74.22
2016-12-21T14:40:21.381Z,74.51
2016-12-21T14:41:31.203Z,74.69
2016-12-21T14:42:41.076Z,74.79
2016-12-21T14:43:50.249Z,74.79
2016-12-21T14:44:59.509Z,74.88
2016-12-21T14:46:09.010Z,74.95
2016-12-21T14:47:18.807Z,74.75
2016-12-21T14:48:28.279Z,74.75
2016-12-21T14:49:37.525Z,75.23
2016-12-21T14:50:46.723Z,75.17
2016-12-21T14:51:56.207Z,75.17
2016-12-21T14:53:05.102Z,75.07
2016-12-21T14:54:14.927Z,75.17
2016-12-21T14:55:24.446Z,74.98
2016-12-21T14:56:34.383Z,74.85
2016-12-21T14:57:44.321Z,75.32
2016-12-21T14:58:54.122Z,75.13
2016-12-21T15:00:03.951Z,75.13
2016-12-21T15:01:13.766Z,75.42